createdAt,value
2022-09-22T16:01:47.304Z,73.00
2022-09-22T16:03:22.632Z,86.00
2022-09-22T16:04:55.642Z,83.25
2022-09-22T16:06:27.335Z,84.50
2022-09-22T16:07:59.755Z,90.75
2022-09-22T16:09:31.423Z,89.75
2022-09-22T16:11:03.414Z,88.50
2022-09-22T16:12:35.350Z,88.25
2022-09-22T16:14:07.239Z,102.50
2022-09-22T16:15:39.459Z,128.75
2022-09-22T16:17:11.215Z,159.00
2022-09-22T16:18:43.943Z,142.00
2022-09-22T16:20:16.642Z,144.67
2022-09-22T16:21:54.156Z,143.00
2022-09-22T16:23:25.973Z,140.00
2022-09-22T16:24:57.759Z,141.33
2022-09-22T16:26:29.579Z,136.67
2022-09-22T16:28:01.349Z,143.33
2022-09-22T16:29:37.319Z,130.50
2022-09-22T16:31:09.028Z,140.67
2022-09-22T16:32:40.783Z,128.33
2022-09-22T16:34:12.514Z,127.00
2022-09-22T16:35:44.173Z,133.67
2022-09-22T16:37:15.824Z,149.33
2022-09-22T16:38:47.790Z,155.67
2022-09-22T16:40:20.033Z,137.33
2022-09-22T16:41:51.746Z,146.00
2022-09-22T16:43:23.406Z,125.33
2022-09-22T16:44:55.062Z,262.60
2022-09-22T16:46:28.057Z,260.40
2022-09-22T16:47:59.822Z,234.50
2022-09-22T16:49:33.438Z,229.33
2022-09-22T16:51:05.487Z,241.25
2022-09-22T16:52:37.517Z,215.25
2022-09-22T16:54:12.319Z,168.25
2022-09-22T16:55:51.460Z,160.50
2022-09-22T16:57:23.117Z,152.33
2022-09-22T16:58:55.472Z,151.67
2022-09-22T17:00:27.241Z,148.33
2022-09-22T17:01:58.971Z,141.33
2022-09-22T17:03:31.391Z,140.33
2022-09-22T17:05:03.756Z,127.50
2022-09-22T17:06:36.085Z,126.00
2022-09-22T17:08:08.554Z,132.33
2022-09-22T17:09:40.260Z,142.00
2022-09-22T17:11:13.609Z,155.33
2022-09-22T17:12:45.196Z,159.33
2022-09-22T17:14:24.378Z,144.67
2022-09-22T17:16:22.056Z,155.00
2022-09-22T17:17:53.745Z,147.33
2022-09-22T17:19:26.686Z,133.33
2022-09-22T17:20:58.673Z,142.67
2022-09-22T17:22:30.289Z,133.50
2022-09-22T17:24:02.390Z,132.33
2022-09-22T17:25:34.118Z,123.67
2022-09-22T17:27:06.165Z,130.50
2022-09-22T17:28:38.737Z,126.25
2022-09-22T17:30:10.915Z,124.00
2022-09-22T17:31:43.374Z,125.67
2022-09-22T17:33:16.920Z,116.75
2022-09-22T17:34:48.579Z,129.25
2022-09-22T17:36:23.896Z,134.67
2022-09-22T17:37:55.648Z,131.00
2022-09-22T17:39:28.031Z,124.75
2022-09-22T17:41:10.177Z,124.25
2022-09-22T17:42:41.880Z,138.67
2022-09-22T17:44:14.730Z,198.25
2022-09-22T17:45:47.671Z,306.20
2022-09-22T17:47:37.666Z,235.40
2022-09-22T17:49:27.970Z,161.00
2022-09-22T17:51:18.135Z,156.33
2022-09-22T17:53:08.318Z,152.67
2022-09-22T17:54:59.273Z,148.33
2022-09-22T17:56:30.894Z,141.33
2022-09-22T17:58:02.660Z,123.50
2022-09-22T17:59:34.826Z,143.33
2022-09-22T18:01:06.532Z,181.75
2022-09-22T18:02:38.965Z,124.33
2022-09-22T18:04:10.682Z,138.67
2022-09-22T18:05:42.476Z,129.00
2022-09-22T18:07:17.973Z,141.67
2022-09-22T18:08:49.696Z,136.33
2022-09-22T18:10:21.326Z,115.00
2022-09-22T18:11:52.994Z,142.00
2022-09-22T18:13:24.725Z,139.00
2022-09-22T18:14:56.471Z,157.33
2022-09-22T18:16:33.156Z,135.67
2022-09-22T18:18:04.886Z,151.00
2022-09-22T18:19:36.808Z,130.33
2022-09-22T18:21:09.596Z,141.33
2022-09-22T18:22:41.625Z,126.00
2022-09-22T18:24:19.623Z,147.33
2022-09-22T18:25:51.313Z,124.67
2022-09-22T18:27:29.850Z,144.00
2022-09-22T18:29:01.902Z,157.33
2022-09-22T18:30:34.283Z,133.33
2022-09-22T18:32:05.976Z,171.50
2022-09-22T18:33:37.615Z,166.50
2022-09-22T18:35:09.684Z,172.75
2022-09-22T18:36:41.631Z,155.33
2022-09-22T18:38:14.079Z,153.33
2022-09-22T18:39:45.795Z,143.33
2022-09-22T18:41:19.782Z,138.67
2022-09-22T18:42:51.567Z,135.67
2022-09-22T18:44:23.807Z,140.67
2022-09-22T18:45:55.415Z,121.50
2022-09-22T18:47:27.120Z,143.67
2022-09-22T18:49:04.457Z,138.33
2022-09-22T18:50:36.332Z,144.33
2022-09-22T18:52:08.103Z,131.67
2022-09-22T18:53:39.777Z,136.00
2022-09-22T18:55:11.727Z,138.67
2022-09-22T18:56:47.234Z,133.33
2022-09-22T18:58:18.916Z,135.33
2022-09-22T18:59:51.215Z,156.67
2022-09-22T19:01:23.911Z,134.00
2022-09-22T19:02:56.211Z,134.00
2022-09-22T19:04:28.150Z,128.33
2022-09-22T19:05:59.754Z,125.67
2022-09-22T19:07:43.612Z,127.33
2022-09-22T19:09:15.929Z,136.33
2022-09-22T19:10:48.402Z,137.67
2022-09-22T19:12:22.818Z,132.67
2022-09-22T19:13:54.561Z,126.50
2022-09-22T19:15:26.710Z,124.00
2022-09-22T19:17:00.480Z,120.25
2022-09-22T19:18:32.431Z,134.00
2022-09-22T19:20:04.547Z,129.00
2022-09-22T19:21:38.804Z,136.50
2022-09-22T19:23:11.470Z,124.75
2022-09-22T19:24:46.308Z,125.75
2022-09-22T19:26:18.579Z,150.00
2022-09-22T19:27:52.533Z,137.33
2022-09-22T19:29:24.324Z,155.33
2022-09-22T19:30:58.114Z,167.50
2022-09-22T19:32:29.859Z,156.67
2022-09-22T19:34:01.919Z,151.00
2022-09-22T19:35:38.411Z,149.33
2022-09-22T19:37:10.839Z,141.00
2022-09-22T19:38:42.551Z,139.67
2022-09-22T19:40:18.571Z,144.33
2022-09-22T19:41:50.991Z,127.25
2022-09-22T19:43:24.412Z,135.67
2022-09-22T19:44:56.084Z,131.67
2022-09-22T19:46:27.967Z,144.00
2022-09-22T19:47:59.636Z,131.33
2022-09-22T19:49:31.839Z,190.00
2022-09-22T19:51:03.767Z,287.20
2022-09-22T19:52:36.267Z,234.75
2022-09-22T19:54:08.123Z,266.50
2022-09-22T19:55:39.853Z,224.00
2022-09-22T19:57:11.646Z,242.60
2022-09-22T19:58:44.858Z,195.50
2022-09-22T20:00:26.519Z,182.75
2022-09-22T20:01:58.386Z,182.00
2022-09-22T20:03:30.217Z,174.00
2022-09-22T20:05:01.811Z,172.25
2022-09-22T20:06:33.940Z,195.50
2022-09-22T20:08:07.599Z,186.50
2022-09-22T20:09:39.247Z,208.25
2022-09-22T20:11:25.526Z,205.00
2022-09-22T20:12:58.123Z,211.00
2022-09-22T20:14:31.611Z,207.75
2022-09-22T20:16:03.379Z,202.50
2022-09-22T20:17:35.110Z,174.75
2022-09-22T20:19:06.935Z,189.50
2022-09-22T20:20:38.676Z,210.25
2022-09-22T20:22:25.479Z,171.25
2022-09-22T20:23:57.235Z,158.25
2022-09-22T20:25:30.674Z,214.50
2022-09-22T20:27:02.314Z,182.00
2022-09-22T20:28:34.144Z,212.00
2022-09-22T20:30:07.126Z,295.00
2022-09-22T20:31:39.059Z,301.40
2022-09-22T20:33:18.889Z,271.40
2022-09-22T20:34:53.713Z,232.25
2022-09-22T20:36:25.518Z,227.67
2022-09-22T20:37:57.557Z,223.00
2022-09-22T20:39:29.248Z,214.00
2022-09-22T20:41:01.196Z,231.50
2022-09-22T20:42:32.837Z,211.33
2022-09-22T20:44:04.439Z,204.50
2022-09-22T20:45:36.128Z,217.50
2022-09-22T20:47:15.838Z,214.25
2022-09-22T20:48:47.547Z,195.50
2022-09-22T20:50:21.162Z,184.00
2022-09-22T20:51:52.848Z,207.25
2022-09-22T20:53:24.488Z,223.50
2022-09-22T20:54:56.116Z,179.50
2022-09-22T20:56:27.778Z,167.75
2022-09-22T20:58:02.508Z,228.25
2022-09-22T20:59:34.198Z,191.50
2022-09-22T21:01:06.886Z,214.25
2022-09-22T21:02:38.852Z,169.75
2022-09-22T21:04:16.053Z,166.75
2022-09-22T21:05:48.659Z,210.25
2022-09-22T21:07:20.513Z,201.75
2022-09-22T21:09:10.621Z,216.00
2022-09-22T21:10:42.249Z,305.00
2022-09-22T21:12:13.913Z,261.00
2022-09-22T21:13:45.572Z,274.75
2022-09-22T21:15:17.280Z,255.20
2022-09-22T21:16:50.862Z,259.00
2022-09-22T21:18:26.477Z,260.00
2022-09-22T21:19:58.196Z,244.75
2022-09-22T21:21:31.162Z,226.00
2022-09-22T21:23:02.802Z,226.50
2022-09-22T21:24:34.465Z,227.75
2022-09-22T21:26:07.749Z,225.75
2022-09-22T21:27:39.342Z,220.50
2022-09-22T21:29:10.981Z,225.00
2022-09-22T21:30:42.683Z,231.50
2022-09-22T21:32:14.394Z,227.75
2022-09-22T21:33:47.280Z,222.25
2022-09-22T21:35:18.996Z,223.75
2022-09-22T21:36:51.123Z,226.67
2022-09-22T21:38:23.397Z,208.25
2022-09-22T21:39:55.011Z,222.00
2022-09-22T21:41:27.971Z,210.00
2022-09-22T21:42:59.690Z,202.00
2022-09-22T21:44:31.326Z,221.00
2022-09-22T21:46:06.677Z,147.67
2022-09-22T21:47:38.321Z,183.75
2022-09-22T21:49:10.687Z,201.50
2022-09-22T21:50:42.300Z,280.80
2022-09-22T21:52:13.977Z,375.40
2022-09-22T21:53:46.307Z,321.20
2022-09-22T21:55:18.668Z,256.50
2022-09-22T21:56:50.753Z,227.25
2022-09-22T21:58:22.465Z,221.75
2022-09-22T21:59:56.740Z,196.75
2022-09-22T22:01:32.968Z,203.75
2022-09-22T22:03:22.974Z,198.25
2022-09-22T22:04:55.682Z,185.75
2022-09-22T22:06:31.531Z,174.50
2022-09-22T22:08:03.232Z,180.50
2022-09-22T22:09:34.991Z,173.00
2022-09-22T22:11:11.864Z,180.75
2022-09-22T22:12:44.998Z,172.50
2022-09-22T22:14:19.113Z,163.50
2022-09-22T22:15:50.798Z,185.00
2022-09-22T22:17:22.452Z,166.75
2022-09-22T22:18:54.102Z,163.75
2022-09-22T22:20:25.728Z,172.25
2022-09-22T22:21:57.337Z,170.75
2022-09-22T22:23:32.050Z,171.25
2022-09-22T22:25:06.940Z,161.00
2022-09-22T22:26:38.618Z,159.00
2022-09-22T22:28:10.211Z,165.00
2022-09-22T22:29:42.129Z,170.67
2022-09-22T22:31:15.728Z,160.67
2022-09-22T22:32:47.467Z,166.50
2022-09-22T22:34:21.018Z,166.50
